14 sierpnia 2022

Czas Kod Pogoda Temp. Widoczność Sufit Wiatr METAR/SPECI
02:00
M
20 °C 7 km 2.800 ft 360° 360° 7 kt METAR LFBD 140000Z AUTO 36007KT 290V050 7000 TSRA SCT007/// BKN028/// BKN062/// ///CB 20/20 Q1011 TEMPO 4000 SHRA BKN010 BKN020TCU
01:30
M
20 °C 5 km 9.800 ft 350° 350° 8 kt METAR LFBD 132330Z AUTO 35008KT 320V060 5000 -TSRA BR FEW006/// SCT060/// BKN098/// //////CB 20/20 Q1011 TEMPO SHRA BKN010 BKN020TCU
01:00
M
21 °C 6 km 10.000 ft 300° 300° 7 kt METAR LFBD 132300Z AUTO 30007KT 250V320 6000 TSRA FEW021/// BKN100/// OVC120/// ///CB 21/20 Q1011 TEMPO VRB15G30KT 4000 SHRA BKN010 BKN020TCU
00:30
V
21 °C 8 km 12.000 ft 300° 300° 6 kt METAR LFBD 132230Z AUTO 30006KT 270V330 8000 -RA FEW019/// BKN120/// OVC130/// //////CB 21/20 Q1011 TEMPO VRB15G30KT 4000 SHRA BKN010 BKN020TCU
00:00
V
21 °C 10 km+ 10.000 ft 280° 280° 8 kt METAR LFBD 132200Z AUTO 28008KT 9999 SCT017/// SCT070/// BKN100/// ///CB 21/20 Q1011 TEMPO VRB15G30KT 2000 TSGR

13 sierpnia 2022

Czas Kod Pogoda Temp. Widoczność Sufit Wiatr METAR/SPECI
23:30
V
22 °C 10 km+ 3.700 ft 280° 280° 6 kt METAR LFBD 132130Z AUTO 28006KT 9999 -TSRA SCT016/// BKN037/// BKN070/// ///CB 22/20 Q1011 TEMPO VRB15G30KT 2000 TSGR
23:00
V
22 °C 10 km+ 12.000 ft 290° 290° 8 kt METAR LFBD 132100Z AUTO 29008KT 240V320 9999 VCTS FEW012/// BKN120/// OVC150/// //////CB 22/19 Q1011 TEMPO VRB15G30KT 2000 TSGR
22:30
V
22 °C 10 km+ 14.000 ft 320° 320° 5 kt METAR LFBD 132030Z AUTO 32005KT 270V010 9999 TS FEW016/// SCT120/// BKN140/// ///CB 22/19 Q1010 TEMPO VRB15G30KT 2000 TSGR
22:00
M
23 °C 10 km+ 1.700 ft 250° 250° 10 kt METAR LFBD 132000Z AUTO 25010KT 9999 BKN017/// BKN120/// OVC140/// //////CB 23/19 Q1011 TEMPO VRB15G30KT 2000 TSGR
21:30
V
23 °C 10 km+ - 260° 260° 12 kt METAR LFBD 131930Z AUTO 26012KT CAVOK 23/19 Q1011 TEMPO VRB15G30KT 2000 TSGR BKN025CB
21:00
V
24 °C 10 km+ - 290° 290° 9 kt METAR LFBD 131900Z AUTO 29009KT CAVOK 24/19 Q1009 TEMPO VRB15G30KT 4000 TSRA BKN040CB
20:30
V
25 °C 10 km+ - 300° 300° 10 kt METAR LFBD 131830Z AUTO 30010KT CAVOK 25/19 Q1009 TEMPO VRB15G30KT 4000 TSRA BKN040CB
20:00
V
27 °C 10 km+ - 300° 300° 11 kt METAR LFBD 131800Z AUTO 30011KT CAVOK 27/19 Q1009 TEMPO VRB15G30KT 4000 TSRA BKN040CB
19:30
V
29 °C 10 km+ - 310° 310° 9 kt METAR LFBD 131730Z AUTO 31009KT CAVOK 29/19 Q1009 TEMPO VRB15G30KT 4000 TSRA SCT040CB
19:00
V
30 °C 10 km+ - 290° 290° 9 kt METAR LFBD 131700Z AUTO 29009KT CAVOK 30/19 Q1009 NOSIG
18:30
V
32 °C 10 km+ - 310° 310° 10 kt METAR LFBD 131630Z AUTO 31010KT 280V350 CAVOK 32/19 Q1009 NOSIG
18:00
V
34 °C 10 km+ - 300° 300° 8 kt METAR LFBD 131600Z AUTO 30008KT 260V340 CAVOK 34/19 Q1009 NOSIG
17:30
V
34 °C 10 km+ - 240° 240° 6 kt METAR LFBD 131530Z AUTO 24006KT 190V310 CAVOK 34/19 Q1009 NOSIG
17:00
V
34 °C 10 km+ - 220° 220° 5 kt METAR LFBD 131500Z AUTO 22005KT 180V250 CAVOK 34/19 Q1010 NOSIG
16:30
V
33 °C 10 km+ - 230° 230° 5 kt METAR LFBD 131430Z AUTO 23005KT 190V290 CAVOK 33/19 Q1010 NOSIG
16:00
V
33 °C 10 km+ - 240° 240° 6 kt METAR LFBD 131400Z AUTO 24006KT 180V300 CAVOK 33/18 Q1010 NOSIG
15:30
V
33 °C 10 km+ - 250° 250° 7 kt METAR LFBD 131330Z AUTO 25007KT 180V320 CAVOK 33/19 Q1011 NOSIG
15:00
V
33 °C 10 km+ - Var Var 3 kt METAR LFBD 131300Z AUTO VRB03KT CAVOK 33/18 Q1011 NOSIG
14:30
V
32 °C 10 km+ - Var Var 3 kt METAR LFBD 131230Z AUTO VRB03KT CAVOK 32/18 Q1011 NOSIG
14:00
V
32 °C 10 km+ - Var Var 4 kt METAR LFBD 131200Z AUTO VRB04KT CAVOK 32/18 Q1011 NOSIG
13:30
V
30 °C 10 km+ - Var Var 3 kt METAR LFBD 131130Z AUTO VRB03KT CAVOK 30/18 Q1011 NOSIG
13:00
V
29 °C 10 km+ - Var Var 3 kt METAR LFBD 131100Z AUTO VRB03KT CAVOK 29/18 Q1012 NOSIG
12:30
V
29 °C 10 km+ - 260° 260° 3 kt METAR LFBD 131030Z AUTO 26003KT 210V020 CAVOK 29/19 Q1012 NOSIG
12:00
V
28 °C 10 km+ - Var Var 3 kt METAR LFBD 131000Z AUTO VRB03KT CAVOK 28/19 Q1012 NOSIG
11:30
V
27 °C 10 km+ - Var Var 5 kt METAR LFBD 130930Z AUTO VRB05KT 9999 FEW026 27/19 Q1012 NOSIG
11:00
M
26 °C 10 km+ 2.100 ft 220° 220° 6 kt METAR LFBD 130900Z AUTO 22006KT 160V250 9999 BKN021 26/19 Q1013 NOSIG
10:30
M
25 °C 10 km+ 1.800 ft 210° 210° 7 kt METAR LFBD 130830Z AUTO 21007KT 170V240 9999 BKN018 25/19 Q1013 NOSIG
10:00
M
24 °C 10 km+ 1.500 ft 240° 240° 5 kt METAR LFBD 130800Z AUTO 24005KT 200V290 9999 OVC015 24/19 Q1012 NOSIG
09:30
M
23 °C 10 km+ 1.500 ft 220° 220° 3 kt METAR LFBD 130730Z AUTO 22003KT 180V250 9999 OVC015 23/20 Q1012 NOSIG
09:00
M
22 °C 10 km+ 1.500 ft Var Var 2 kt METAR LFBD 130700Z AUTO VRB02KT 9999 OVC015 22/20 Q1012 NOSIG
08:30
M
21 °C 10 km+ 1.500 ft 200° 200° 3 kt METAR LFBD 130630Z AUTO 20003KT 9999 OVC015 21/19 Q1012 NOSIG
08:00
M
21 °C 7 km 1.400 ft 220° 220° 2 kt METAR LFBD 130600Z AUTO 22002KT 7000 BKN014 21/19 Q1012 BECMG NSC
07:30
M
20 °C 7 km 1.400 ft 220° 220° 2 kt METAR LFBD 130530Z AUTO 22002KT 7000 BKN014 20/19 Q1012 BECMG NSC
07:00
M
20 °C 8 km 1.300 ft 220° 220° 3 kt METAR LFBD 130500Z AUTO 22003KT 8000 BKN013 20/19 Q1012 BECMG NSC
06:30
M
21 °C 8 km 1.200 ft 220° 220° 4 kt METAR LFBD 130430Z AUTO 22004KT 8000 OVC012 21/19 Q1012 BECMG NSC
06:00
M
21 °C 10 km+ 1.100 ft 220° 220° 4 kt METAR LFBD 130400Z AUTO 22004KT 9999 OVC011 21/20 Q1012 TEMPO BKN008
05:30
I
21 °C 9 km 900 ft 250° 250° 3 kt METAR LFBD 130330Z AUTO 25003KT 9000 OVC009 21/20 Q1012 NOSIG
05:00
I
21 °C 10 km+ 900 ft 260° 260° 4 kt METAR LFBD 130300Z AUTO 26004KT 9999 BKN009 21/20 Q1012 NOSIG
04:30
I
21 °C 10 km+ 900 ft 260° 260° 5 kt METAR LFBD 130230Z AUTO 26005KT 9999 OVC009 21/20 Q1012 NOSIG
04:00
I
22 °C 10 km+ 800 ft 250° 250° 9 kt METAR LFBD 130200Z AUTO 25009KT 9999 OVC008 22/20 Q1012 NOSIG
03:30
I
22 °C 10 km+ 800 ft 250° 250° 10 kt METAR LFBD 130130Z AUTO 25010KT 9999 BKN008 22/20 Q1012 NOSIG
03:00
I
22 °C 10 km+ 800 ft 250° 250° 9 kt METAR LFBD 130100Z AUTO 25009KT 9999 BKN008 22/20 Q1012 NOSIG
02:30
I
22 °C 10 km+ 800 ft 260° 260° 9 kt METAR LFBD 130030Z AUTO 26009KT 9999 BKN008 22/20 Q1012 NOSIG
02:00
I
22 °C 10 km+ 900 ft 260° 260° 9 kt METAR LFBD 130000Z AUTO 26009KT 9999 BKN009 22/20 Q1013 NOSIG
01:30
V
22 °C 10 km+ - 260° 260° 10 kt METAR LFBD 122330Z AUTO 26010KT 9999 SCT010 22/20 Q1013 TEMPO BKN008
01:00
V
23 °C 10 km+ - 260° 260° 10 kt METAR LFBD 122300Z AUTO 26010KT 9999 SCT011 23/20 Q1013 TEMPO BKN008
00:30
V
23 °C 10 km+ - 260° 260° 12 kt METAR LFBD 122230Z AUTO 26012KT 9999 SCT011 23/20 Q1013 TEMPO BKN008
00:00
I
23 °C 10 km+ 900 ft 250° 250° 11 kt METAR LFBD 122200Z AUTO 25011KT 9999 BKN009 23/21 Q1013 NOSIG

12 sierpnia 2022

Czas Kod Pogoda Temp. Widoczność Sufit Wiatr METAR/SPECI
23:30
I
23 °C 10 km+ 800 ft 270° 270° 8 kt METAR LFBD 122130Z AUTO 27008KT 9999 BKN008 23/21 Q1013 BECMG NSC
23:00
V
24 °C 10 km+ - 260° 260° 7 kt METAR LFBD 122100Z AUTO 26007KT CAVOK 24/20 Q1013 NOSIG
22:30
V
24 °C 10 km+ - 250° 250° 8 kt METAR LFBD 122030Z AUTO 25008KT CAVOK 24/20 Q1012 NOSIG
22:00
V
25 °C 10 km+ - 260° 260° 7 kt METAR LFBD 122000Z AUTO 26007KT 230V290 CAVOK 25/19 Q1012 NOSIG
21:30
V
26 °C 10 km+ - 270° 270° 6 kt METAR LFBD 121930Z AUTO 27006KT CAVOK 26/18 Q1012 NOSIG
21:00
V
28 °C 10 km+ - 270° 270° 11 kt METAR LFBD 121900Z AUTO 27011KT CAVOK 28/18 Q1011 NOSIG
20:30
V
30 °C 10 km+ - 290° 290° 10 kt METAR LFBD 121830Z AUTO 29010KT CAVOK 30/16 Q1011 NOSIG
20:00
V
31 °C 10 km+ - 290° 290° 11 kt METAR LFBD 121800Z AUTO 29011KT CAVOK 31/15 Q1011 NOSIG
19:30
V
34 °C 10 km+ - 280° 280° 12 kt METAR LFBD 121730Z AUTO 28012KT CAVOK 34/14 Q1011 NOSIG
19:00
V
35 °C 10 km+ - 290° 290° 11 kt METAR LFBD 121700Z AUTO 29011KT CAVOK 35/14 Q1011 TEMPO 30015G25KT
18:30
V
36 °C 10 km+ - 280° 280° 9 kt METAR LFBD 121630Z AUTO 28009KT CAVOK 36/14 Q1010 TEMPO 30015G25KT
18:00
V
37 °C 10 km+ - 300° 300° 9 kt METAR LFBD 121600Z AUTO 30009KT 270V340 CAVOK 37/15 Q1011 TEMPO 30015G25KT
17:30
V
36 °C 10 km+ - 280° 280° 8 kt METAR LFBD 121530Z AUTO 28008KT 210V330 CAVOK 36/16 Q1011 TEMPO 30015G25KT
17:00
V
36 °C 10 km+ - 240° 240° 9 kt METAR LFBD 121500Z AUTO 24009KT 220V280 CAVOK 36/16 Q1011 TEMPO 30015G25KT
16:30
V
36 °C 10 km+ - 240° 240° 11 kt METAR LFBD 121430Z AUTO 24011KT CAVOK 36/17 Q1011 TEMPO 30015G25KT
16:00
V
36 °C 10 km+ - 260° 260° 10 kt METAR LFBD 121400Z AUTO 26010KT 220V310 CAVOK 36/18 Q1011 TEMPO 30015G25KT
15:30
V
36 °C 10 km+ - 230° 230° 10 kt METAR LFBD 121330Z AUTO 23010KT 200V280 CAVOK 36/18 Q1011 TEMPO 30015G25KT
15:00
V
36 °C 10 km+ - 230° 230° 9 kt METAR LFBD 121300Z AUTO 23009KT 200V270 CAVOK 36/18 Q1012 NOSIG
14:30
V
35 °C 10 km+ - 230° 230° 8 kt METAR LFBD 121230Z AUTO 23008KT 200V270 CAVOK 35/18 Q1012 NOSIG
14:00
V
35 °C 10 km+ - 240° 240° 7 kt METAR LFBD 121200Z AUTO 24007KT 210V280 CAVOK 35/18 Q1012 NOSIG
13:30
V
34 °C 10 km+ - 240° 240° 7 kt METAR LFBD 121130Z AUTO 24007KT 190V290 CAVOK 34/18 Q1012 NOSIG
13:00
V
34 °C 10 km+ - 240° 240° 8 kt METAR LFBD 121100Z AUTO 24008KT 210V280 CAVOK 34/17 Q1012 NOSIG
12:30
V
34 °C 10 km+ - 240° 240° 7 kt METAR LFBD 121030Z AUTO 24007KT 180V280 CAVOK 34/18 Q1013 NOSIG
12:00
V
33 °C 10 km+ - 250° 250° 8 kt METAR LFBD 121000Z AUTO 25008KT 210V280 CAVOK 33/17 Q1013 NOSIG
11:30
V
32 °C 10 km+ - 230° 230° 7 kt METAR LFBD 120930Z AUTO 23007KT 190V260 CAVOK 32/16 Q1013 NOSIG
11:00
V
32 °C 10 km+ - 220° 220° 5 kt METAR LFBD 120900Z AUTO 22005KT 190V260 CAVOK 32/16 Q1013 NOSIG
10:30
V
31 °C 10 km+ - 210° 210° 3 kt METAR LFBD 120830Z AUTO 21003KT 170V280 CAVOK 31/15 Q1012 NOSIG
10:00
I
29 °C 4,7 km - Var Var 2 kt METAR LFBD 120800Z AUTO VRB02KT 9999 4700 NSC 29/14 Q1012 NOSIG
09:30
V
28 °C 10 km+ - Var Var 1 kt METAR LFBD 120730Z AUTO VRB01KT CAVOK 28/15 Q1012 NOSIG
09:00
V
27 °C 10 km+ - 240° 240° 3 kt METAR LFBD 120700Z AUTO 24003KT 9999 FEW008 27/15 Q1012 NOSIG
08:30
V
27 °C 10 km+ - Var Var 2 kt METAR LFBD 120630Z AUTO VRB02KT CAVOK 27/14 Q1012 NOSIG
08:00
V
25 °C 10 km+ - 020° 020° 3 kt METAR LFBD 120600Z AUTO 02003KT CAVOK 25/14 Q1012 NOSIG
07:30
V
24 °C 10 km+ - Var Var 2 kt METAR LFBD 120530Z AUTO VRB02KT CAVOK 24/14 Q1012 NOSIG
07:00
V
24 °C 10 km+ - Var Var 2 kt METAR LFBD 120500Z AUTO VRB02KT CAVOK 24/14 Q1012 NOSIG
06:30
V
25 °C 10 km+ - 270° 270° 3 kt METAR LFBD 120430Z AUTO 27003KT CAVOK 25/14 Q1012 NOSIG
06:00
V
26 °C 10 km+ - 220° 220° 5 kt METAR LFBD 120400Z AUTO 22005KT CAVOK 26/14 Q1012 NOSIG
05:30
V
26 °C 10 km+ - 070° 070° 2 kt METAR LFBD 120330Z AUTO 07002KT CAVOK 26/13 Q1012 NOSIG
05:00
V
27 °C 10 km+ - 040° 040° 3 kt METAR LFBD 120300Z AUTO 04003KT CAVOK 27/13 Q1012 NOSIG
04:30
V
26 °C 10 km+ - 050° 050° 3 kt METAR LFBD 120230Z AUTO 05003KT CAVOK 26/14 Q1012 NOSIG
04:00
V
27 °C 10 km+ - 050° 050° 4 kt METAR LFBD 120200Z AUTO 05004KT CAVOK 27/13 Q1012 NOSIG
03:30
V
27 °C 10 km+ - 040° 040° 4 kt METAR LFBD 120130Z AUTO 04004KT CAVOK 27/14 Q1012 NOSIG
03:00
V
27 °C 10 km+ - 060° 060° 3 kt METAR LFBD 120100Z AUTO 06003KT 030V090 CAVOK 27/14 Q1012 NOSIG
02:30
V
27 °C 10 km+ - 030° 030° 5 kt METAR LFBD 120030Z AUTO 03005KT CAVOK 27/14 Q1012 NOSIG
02:00
V
27 °C 10 km+ - 020° 020° 3 kt METAR LFBD 120000Z AUTO 02003KT CAVOK 27/13 Q1012 NOSIG
01:30
V
28 °C 10 km+ - 360° 360° 4 kt METAR LFBD 112330Z AUTO 36004KT 340V080 CAVOK 28/13 Q1012 NOSIG
01:00
V
28 °C 10 km+ - Var Var 3 kt METAR LFBD 112300Z AUTO VRB03KT CAVOK 28/13 Q1012 NOSIG
00:30
V
29 °C 10 km+ - 010° 010° 4 kt METAR LFBD 112230Z AUTO 01004KT 350V070 CAVOK 29/12 Q1012 NOSIG
00:00
V
30 °C 10 km+ - 010° 010° 4 kt METAR LFBD 112200Z AUTO 01004KT CAVOK 30/12 Q1012 NOSIG

11 sierpnia 2022

Czas Kod Pogoda Temp. Widoczność Sufit Wiatr METAR/SPECI
23:30
V
31 °C 10 km+ - 010° 010° 5 kt METAR LFBD 112130Z AUTO 01005KT CAVOK 31/12 Q1012 NOSIG
23:00
V
31 °C 10 km+ - 360° 360° 6 kt METAR LFBD 112100Z AUTO 36006KT CAVOK 31/12 Q1012 NOSIG
22:30
V
32 °C 10 km+ - 360° 360° 7 kt METAR LFBD 112030Z AUTO 36007KT CAVOK 32/12 Q1012 NOSIG
22:00
V
33 °C 10 km+ - 360° 360° 6 kt METAR LFBD 112000Z AUTO 36006KT 350V050 CAVOK 33/13 Q1012 NOSIG
21:30
V
34 °C 10 km+ - 350° 350° 6 kt METAR LFBD 111930Z AUTO 35006KT 300V050 CAVOK 34/14 Q1012 NOSIG
21:00
V
35 °C 10 km+ - 360° 360° 4 kt METAR LFBD 111900Z AUTO 36004KT 330V080 CAVOK 35/14 Q1011 NOSIG
20:30
V
36 °C 10 km+ - 030° 030° 6 kt METAR LFBD 111830Z AUTO 03006KT CAVOK 36/14 Q1011 NOSIG
20:00
V
37 °C 10 km+ - 030° 030° 7 kt METAR LFBD 111800Z AUTO 03007KT CAVOK 37/14 Q1011 NOSIG
19:30
V
38 °C 10 km+ - 020° 020° 3 kt METAR LFBD 111730Z AUTO 02003KT 350V080 CAVOK 38/13 Q1011 NOSIG
19:00
V
38 °C 10 km+ - 020° 020° 5 kt METAR LFBD 111700Z AUTO 02005KT 340V070 9999 FEW008 38/12 Q1011 NOSIG
18:30
V
38 °C 10 km+ - Var Var 3 kt METAR LFBD 111630Z AUTO VRB03KT CAVOK 38/13 Q1011 NOSIG
18:00
V
38 °C 10 km+ - 040° 040° 7 kt METAR LFBD 111600Z AUTO 04007KT 360V080 CAVOK 38/13 Q1011 NOSIG
17:30
V
39 °C 10 km+ - Var Var 4 kt METAR LFBD 111530Z AUTO VRB04KT CAVOK 39/12 Q1011 NOSIG
17:00
V
39 °C 10 km+ - Var Var 3 kt METAR LFBD 111500Z AUTO VRB03KT CAVOK 39/12 Q1011 NOSIG
Starsze dane

My i osoby trzecie śledzimy twoje zachowanie w internecie na naszej stronie za pomocą plików cookie. Jeśli kontynuujesz, zakładamy, że zgadzasz się z naszą polityką plików cookie. Dowiedz się więcej